Time;durP1;ratioP1;P1;durP2;ratioP2;P2;SDS_P1;SDS_P2;PMS_P1;PMS_P2;Temp;Humidity;BMP_temperature;BMP_pressure;BME280_temperature;BME280_humidity;BME280_pressure;Samples;Min_cycle;Max_cycle;Signal;HPM_P1;HPM_P2
2023/05/09 00:00:10;;;;;;;;;;;17.10;99.90;17.20;99828.00;;;;340556;28;83471;-90
2023/05/09 00:00:22;;;;;;;;;;;17.10;99.90;17.30;99825.00;;;;338505;28;95199;-89
2023/05/09 00:00:36;;;;;;;;;;;17.20;99.90;17.40;99829.00;;;;340826;28;83348;-89
2023/05/09 00:00:49;;;;;;;;;;;17.10;99.90;17.40;99830.00;;;;341212;28;95423;-90
2023/05/09 00:01:10;;;;;;;;;;;17.10;99.90;17.40;99827.00;;;;339034;28;83471;-90
2023/05/09 00:01:21;;;;;;;;;;;17.20;99.90;17.30;99831.00;;;;339820;28;97057;-91
2023/05/09 00:01:34;;;;;;;;;;;17.20;99.90;17.20;99825.00;;;;340544;28;83473;-90
2023/05/09 00:01:46;;;;;;;;;;;17.10;99.90;17.30;99830.00;;;;341209;28;97295;-90
2023/05/09 00:01:58;;;;;;;;;;;17.10;99.90;17.30;99827.00;;;;341919;28;82590;-90
2023/05/09 00:02:10;;;;;;;;;;;17.10;99.90;17.30;99825.00;;;;338741;28;93006;-90
2023/05/09 00:02:22;;;;;;;;;;;17.10;99.90;17.40;99833.00;;;;340592;28;83546;-91
2023/05/09 00:02:36;;;;;;;;;;;17.10;99.90;17.40;99831.00;;;;339976;28;96359;-90
2023/05/09 00:02:48;;;;;;;;;;;17.10;99.90;17.40;99824.00;;;;339921;28;82507;-90
2023/05/09 00:03:01;;;;;;;;;;;17.10;99.90;17.30;99828.00;;;;338628;28;94079;-90
2023/05/09 00:03:13;;;;;;;;;;;17.20;99.90;17.40;99822.00;;;;340473;28;83589;-90
2023/05/09 00:03:25;;;;;;;;;;;17.10;99.90;17.30;99826.00;;;;341395;28;94071;-92
2023/05/09 00:03:37;;;;;;;;;;;17.10;99.90;17.40;99829.00;;;;340700;28;82400;-90
2023/05/09 00:03:50;;;;;;;;;;;17.10;99.90;17.40;99825.00;;;;339936;28;95456;-90
2023/05/09 00:04:02;;;;;;;;;;;17.10;99.90;17.30;99818.00;;;;339186;28;83407;-90
2023/05/09 00:04:15;;;;;;;;;;;17.10;99.90;17.30;99829.00;;;;340081;28;96283;-90
2023/05/09 00:04:27;;;;;;;;;;;17.10;99.90;17.40;99826.00;;;;340790;28;83381;-90
2023/05/09 00:04:40;;;;;;;;;;;17.10;99.90;17.30;99830.00;;;;340040;28;93527;-90
2023/05/09 00:04:52;;;;;;;;;;;17.20;99.90;17.30;99823.00;;;;342136;28;82507;-90
2023/05/09 00:05:05;;;;;;;;;;;17.20;99.90;17.40;99829.00;;;;340048;28;94557;-90
2023/05/09 00:05:18;;;;;;;;;;;17.10;99.90;17.40;99831.00;;;;339025;28;82550;-89
2023/05/09 00:05:30;;;;;;;;;;;17.20;99.90;17.30;99829.00;;;;341237;28;95964;-89
2023/05/09 00:05:42;;;;;;;;;;;17.20;99.90;17.30;99828.00;;;;342139;28;83343;-90
2023/05/09 00:05:54;;;;;;;;;;;17.10;99.90;17.30;99825.00;;;;341173;28;97527;-90
2023/05/09 00:06:06;;;;;;;;;;;17.10;99.90;17.20;99822.00;;;;339436;28;82416;-89
2023/05/09 00:06:18;;;;;;;;;;;17.10;99.90;17.20;99830.00;;;;341376;28;96437;-90
2023/05/09 00:06:31;;;;;;;;;;;17.10;99.90;17.20;99832.00;;;;340663;28;82549;-88
2023/05/09 00:06:42;;;;;;;;;;;17.10;99.90;17.20;99829.00;;;;340014;28;95201;-89
2023/05/09 00:06:54;;;;;;;;;;;17.10;99.90;17.30;99837.00;;;;342119;28;83361;-89
2023/05/09 00:07:06;;;;;;;;;;;17.10;99.90;17.30;99826.00;;;;338687;28;94259;-90
2023/05/09 00:07:18;;;;;;;;;;;17.10;99.90;17.30;99830.00;;;;340765;28;83325;-90
2023/05/09 00:07:30;;;;;;;;;;;17.10;99.90;17.40;99831.00;;;;341359;28;96339;-89
2023/05/09 00:07:42;;;;;;;;;;;17.10;99.90;17.30;99826.00;;;;339258;28;83498;-89
2023/05/09 00:07:54;;;;;;;;;;;17.10;99.90;17.30;99835.00;;;;341145;28;95435;-90
2023/05/09 00:08:06;;;;;;;;;;;17.10;99.90;17.30;99829.00;;;;340843;28;82461;-90
2023/05/09 00:08:17;;;;;;;;;;;17.10;99.90;17.30;99827.00;;;;338692;28;93411;-90
2023/05/09 00:08:29;;;;;;;;;;;17.10;99.90;17.30;99822.00;;;;339405;28;83369;-90
2023/05/09 00:08:41;;;;;;;;;;;17.10;99.90;17.20;99818.00;;;;341277;28;95972;-89
2023/05/09 00:08:53;;;;;;;;;;;17.10;99.90;17.30;99820.00;;;;340511;28;82599;-90
2023/05/09 00:09:06;;;;;;;;;;;17.10;99.90;17.30;99826.00;;;;339714;28;95933;-90
2023/05/09 00:09:17;;;;;;;;;;;17.10;99.90;17.30;99827.00;;;;340941;28;83459;-89
2023/05/09 00:09:29;;;;;;;;;;;17.10;99.90;17.40;99832.00;;;;341296;28;96912;-90
2023/05/09 00:09:41;;;;;;;;;;;17.10;99.90;17.40;99828.00;;;;341872;28;83547;-90
2023/05/09 00:09:53;;;;;;;;;;;17.10;99.90;17.30;99822.00;;;;340905;28;96733;-90
2023/05/09 00:10:05;;;;;;;;;;;17.20;99.90;17.40;99830.00;;;;340875;28;83456;-89
2023/05/09 00:10:17;;;;;;;;;;;17.20;99.90;17.30;99832.00;;;;342496;28;95188;-90
2023/05/09 00:10:29;;;;;;;;;;;17.10;99.90;17.40;99823.00;;;;340851;28;83230;-90
2023/05/09 00:10:41;;;;;;;;;;;17.20;99.90;17.30;99826.00;;;;339749;28;94431;-91
2023/05/09 00:10:53;;;;;;;;;;;17.20;99.90;17.30;99819.00;;;;342138;28;83328;-90
2023/05/09 00:11:05;;;;;;;;;;;17.10;99.90;17.40;99822.00;;;;337443;28;95508;-91
2023/05/09 00:11:16;;;;;;;;;;;17.20;99.90;17.40;99817.00;;;;340649;28;83499;-89
2023/05/09 00:11:28;;;;;;;;;;;17.20;99.90;17.30;99818.00;;;;338519;28;95471;-90
2023/05/09 00:11:40;;;;;;;;;;;17.20;99.90;17.30;99826.00;;;;341998;28;82623;-89
2023/05/09 00:11:52;;;;;;;;;;;17.20;99.90;17.30;99824.00;;;;340872;28;97187;-90
2023/05/09 00:12:04;;;;;;;;;;;17.10;99.90;17.40;99821.00;;;;340714;28;83488;-88
2023/05/09 00:12:16;;;;;;;;;;;17.20;99.90;17.40;99821.00;;;;341351;28;96296;-90
2023/05/09 00:12:28;;;;;;;;;;;17.20;99.90;17.40;99823.00;;;;337987;28;83370;-90
2023/05/09 00:12:42;;;;;;;;;;;17.20;99.90;17.40;99823.00;;;;341153;28;96759;-89
2023/05/09 00:12:54;;;;;;;;;;;17.20;99.90;17.30;99825.00;;;;341736;28;83401;-90
2023/05/09 00:13:06;;;;;;;;;;;17.20;99.90;17.30;99821.00;;;;339674;28;95503;-89
2023/05/09 00:13:19;;;;;;;;;;;17.20;99.90;17.20;99813.00;;;;341786;28;83562;-90
2023/05/09 00:13:33;;;;;;;;;;;17.20;99.90;17.30;99809.00;;;;341581;28;94584;-90
2023/05/09 00:13:46;;;;;;;;;;;17.10;99.90;17.30;99828.00;;;;340418;28;82604;-90
2023/05/09 00:13:57;;;;;;;;;;;17.10;99.90;17.30;99818.00;;;;341094;28;96691;-89
2023/05/09 00:14:11;;;;;;;;;;;17.20;99.90;17.40;99821.00;;;;340677;28;83633;-90
2023/05/09 00:14:23;;;;;;;;;;;17.10;99.90;17.40;99818.00;;;;337527;28;94077;-89
2023/05/09 00:14:35;;;;;;;;;;;17.10;99.90;17.40;99811.00;;;;340912;28;82320;-90
2023/05/09 00:14:50;;;;;;;;;;;17.20;99.90;17.50;99821.00;;;;341207;28;94426;-89
2023/05/09 00:15:02;;;;;;;;;;;17.20;99.90;17.50;99818.00;;;;340568;28;83547;-90
2023/05/09 00:15:15;;;;;;;;;;;17.20;99.90;17.40;99826.00;;;;339757;28;95325;-90
2023/05/09 00:15:27;;;;;;;;;;;17.20;99.90;17.40;99824.00;;;;342037;28;83513;-89
2023/05/09 00:15:39;;;;;;;;;;;17.20;99.90;17.50;99823.00;;;;341500;28;94380;-90
2023/05/09 00:15:56;;;;;;;;;;;17.20;99.90;17.40;99822.00;;;;338143;28;83422;-90
2023/05/09 00:16:08;;;;;;;;;;;17.20;99.90;17.40;99819.00;;;;341208;28;95099;-90
2023/05/09 00:16:22;;;;;;;;;;;17.20;99.90;17.40;99818.00;;;;342077;28;82427;-90
2023/05/09 00:16:35;;;;;;;;;;;17.20;99.90;17.40;99824.00;;;;337243;28;96647;-89
2023/05/09 00:16:47;;;;;;;;;;;17.20;99.90;17.50;99824.00;;;;340721;28;83547;-90
2023/05/09 00:16:59;;;;;;;;;;;17.20;99.90;17.50;99812.00;;;;339810;28;95447;-90
2023/05/09 00:17:13;;;;;;;;;;;17.20;99.90;17.50;99811.00;;;;341911;28;83458;-90
2023/05/09 00:17:25;;;;;;;;;;;17.20;99.90;17.40;99821.00;;;;337380;28;93212;-90
2023/05/09 00:17:38;;;;;;;;;;;17.20;99.90;17.50;99824.00;;;;338128;28;83468;-90
2023/05/09 00:17:50;;;;;;;;;;;17.20;99.90;17.50;99825.00;;;;336955;28;96292;-90
2023/05/09 00:18:02;;;;;;;;;;;17.20;99.90;17.50;99817.00;;;;340646;28;82619;-90
2023/05/09 00:18:14;;;;;;;;;;;17.20;99.90;17.50;99830.00;;;;342072;28;94643;-89
2023/05/09 00:18:27;;;;;;;;;;;17.20;99.90;17.40;99822.00;;;;339554;28;82438;-89
2023/05/09 00:18:41;;;;;;;;;;;17.20;99.90;17.40;99820.00;;;;342627;28;96718;-90
2023/05/09 00:18:52;;;;;;;;;;;17.20;99.90;17.50;99824.00;;;;339279;28;83538;-90
2023/05/09 00:19:05;;;;;;;;;;;17.20;99.90;17.60;99823.00;;;;341344;28;94546;-90
2023/05/09 00:19:17;;;;;;;;;;;17.30;99.90;17.50;99820.00;;;;339225;28;83519;-90
2023/05/09 00:19:29;;;;;;;;;;;17.30;99.90;17.40;99819.00;;;;340362;28;95254;-90
2023/05/09 00:19:42;;;;;;;;;;;17.30;99.90;17.40;99822.00;;;;341083;28;82642;-89
2023/05/09 00:19:54;;;;;;;;;;;17.30;99.90;17.50;99817.00;;;;342761;28;93496;-90
2023/05/09 00:20:08;;;;;;;;;;;17.30;99.90;17.60;99819.00;;;;342122;28;82578;-90
2023/05/09 00:20:21;;;;;;;;;;;17.30;99.90;17.50;99820.00;;;;339931;28;95005;-90
2023/05/09 00:20:33;;;;;;;;;;;17.30;99.90;17.50;99818.00;;;;342426;28;82368;-89
2023/05/09 00:20:45;;;;;;;;;;;17.30;99.90;17.50;99813.00;;;;341373;28;94644;-90
2023/05/09 00:20:57;;;;;;;;;;;17.30;99.90;17.40;99812.00;;;;344995;28;82486;-90
2023/05/09 00:21:09;;;;;;;;;;;17.30;99.90;17.50;99812.00;;;;340025;28;95376;-90
2023/05/09 00:21:21;;;;;;;;;;;17.30;99.90;17.40;99823.00;;;;337994;28;83317;-90
2023/05/09 00:21:33;;;;;;;;;;;17.30;99.90;17.40;99821.00;;;;341285;28;96373;-90
2023/05/09 00:21:45;;;;;;;;;;;17.30;99.90;17.40;99807.00;;;;340492;28;83553;-90
2023/05/09 00:21:57;;;;;;;;;;;17.30;99.90;17.30;99820.00;;;;336076;28;94907;-90
2023/05/09 00:22:11;;;;;;;;;;;17.30;99.90;17.30;99823.00;;;;343294;28;82353;-88
2023/05/09 00:22:23;;;;;;;;;;;17.20;99.90;17.30;99827.00;;;;342910;28;94383;-88
2023/05/09 00:22:35;;;;;;;;;;;17.20;99.90;17.30;99817.00;;;;339796;28;83563;-88
2023/05/09 00:22:47;;;;;;;;;;;17.20;99.90;17.30;99822.00;;;;339003;28;95322;-88
2023/05/09 00:22:58;;;;;;;;;;;17.20;99.90;17.30;99808.00;;;;340598;28;83595;-88
2023/05/09 00:23:10;;;;;;;;;;;17.20;99.90;17.30;99818.00;;;;341045;28;94876;-89
2023/05/09 00:23:22;;;;;;;;;;;17.20;99.90;17.30;99820.00;;;;342272;28;82532;-88
2023/05/09 00:23:34;;;;;;;;;;;17.20;99.90;17.30;99819.00;;;;340035;28;94152;-88
2023/05/09 00:23:46;;;;;;;;;;;17.20;99.90;17.30;99812.00;;;;339536;28;82456;-89
2023/05/09 00:23:59;;;;;;;;;;;17.20;99.90;17.30;99823.00;;;;339823;28;96389;-88
2023/05/09 00:24:11;;;;;;;;;;;17.20;99.90;17.30;99819.00;;;;338257;28;83373;-89
2023/05/09 00:24:22;;;;;;;;;;;17.20;99.90;17.30;99826.00;;;;338725;28;95284;-88
2023/05/09 00:24:34;;;;;;;;;;;17.20;99.90;17.20;99812.00;;;;340474;28;82593;-89
2023/05/09 00:24:49;;;;;;;;;;;17.20;99.90;17.30;99818.00;;;;339827;28;95228;-88
2023/05/09 00:25:01;;;;;;;;;;;17.20;99.90;17.30;99818.00;;;;340884;28;83272;-89
2023/05/09 00:25:13;;;;;;;;;;;17.20;99.90;17.30;99817.00;;;;337122;28;96624;-89
2023/05/09 00:25:25;;;;;;;;;;;17.20;99.90;17.40;99810.00;;;;341802;28;82613;-89
2023/05/09 00:25:37;;;;;;;;;;;17.20;99.90;17.40;99813.00;;;;338806;28;94188;-88
2023/05/09 00:25:48;;;;;;;;;;;17.20;99.90;17.40;99811.00;;;;339485;28;82487;-88
2023/05/09 00:26:00;;;;;;;;;;;17.20;99.90;17.30;99802.00;;;;341182;28;96335;-88
2023/05/09 00:26:12;;;;;;;;;;;17.20;99.90;17.40;99810.00;;;;341020;28;82439;-88
2023/05/09 00:26:25;;;;;;;;;;;17.20;99.90;17.50;99811.00;;;;337305;28;95997;-88
2023/05/09 00:26:36;;;;;;;;;;;17.20;99.90;17.40;99808.00;;;;339284;28;83446;-89
2023/05/09 00:26:48;;;;;;;;;;;17.20;99.90;17.40;99819.00;;;;338826;28;92915;-90
2023/05/09 00:27:00;;;;;;;;;;;17.20;99.90;17.40;99806.00;;;;338121;28;83431;-89
2023/05/09 00:27:12;;;;;;;;;;;17.20;99.90;17.50;99818.00;;;;338657;28;96182;-88
2023/05/09 00:27:24;;;;;;;;;;;17.20;99.90;17.40;99803.00;;;;340744;28;82542;-88
2023/05/09 00:27:35;;;;;;;;;;;17.20;99.90;17.30;99811.00;;;;338713;28;96771;-88
2023/05/09 00:27:47;;;;;;;;;;;17.20;99.90;17.30;99800.00;;;;342020;28;83397;-89
2023/05/09 00:27:59;;;;;;;;;;;17.20;99.90;17.20;99799.00;;;;338869;28;96138;-89
2023/05/09 00:28:11;;;;;;;;;;;17.20;99.90;17.20;99806.00;;;;341916;28;83524;-88
2023/05/09 00:28:23;;;;;;;;;;;17.10;99.90;17.20;99806.00;;;;342504;28;96631;-89
2023/05/09 00:28:34;;;;;;;;;;;17.10;99.90;17.20;99809.00;;;;343498;28;82381;-89
2023/05/09 00:28:46;;;;;;;;;;;17.10;99.90;17.20;99804.00;;;;337415;28;94709;-89
2023/05/09 00:28:58;;;;;;;;;;;17.10;99.90;17.20;99809.00;;;;339346;28;83444;-89
2023/05/09 00:29:10;;;;;;;;;;;17.10;99.90;17.20;99802.00;;;;340032;28;93794;-89
2023/05/09 00:29:22;;;;;;;;;;;17.10;99.90;17.30;99810.00;;;;339440;28;83434;-89
2023/05/09 00:29:34;;;;;;;;;;;17.10;99.90;17.20;99801.00;;;;341311;28;97092;-89
2023/05/09 00:29:45;;;;;;;;;;;17.10;99.90;17.20;99806.00;;;;340844;28;83262;-89
2023/05/09 00:29:57;;;;;;;;;;;17.10;99.90;17.20;99809.00;;;;341236;28;94285;-88
2023/05/09 00:30:09;;;;;;;;;;;17.10;99.90;17.30;99806.00;;;;340558;28;82629;-89
2023/05/09 00:30:21;;;;;;;;;;;17.10;99.90;17.20;99807.00;;;;338562;28;95388;-89
2023/05/09 00:30:33;;;;;;;;;;;17.10;99.90;17.20;99809.00;;;;341747;28;82618;-89
2023/05/09 00:30:44;;;;;;;;;;;17.10;99.90;17.20;99805.00;;;;339953;28;96729;-89
2023/05/09 00:30:56;;;;;;;;;;;17.10;99.90;17.30;99807.00;;;;341936;28;83288;-88
2023/05/09 00:31:08;;;;;;;;;;;17.10;99.90;17.30;99808.00;;;;342440;28;95558;-88
2023/05/09 00:31:20;;;;;;;;;;;17.10;99.90;17.30;99808.00;;;;338135;28;83415;-88
2023/05/09 00:31:32;;;;;;;;;;;17.10;99.90;17.30;99810.00;;;;340008;28;95228;-89
2023/05/09 00:31:43;;;;;;;;;;;17.10;99.90;17.30;99804.00;;;;342122;28;83406;-89
2023/05/09 00:31:55;;;;;;;;;;;17.10;99.90;17.40;99807.00;;;;340049;28;93337;-89
2023/05/09 00:32:07;;;;;;;;;;;17.10;99.90;17.40;99808.00;;;;339917;28;82444;-89
2023/05/09 00:32:19;;;;;;;;;;;17.10;99.90;17.30;99795.00;;;;338742;28;98211;-89
2023/05/09 00:32:32;;;;;;;;;;;17.10;99.90;17.30;99803.00;;;;339931;28;83644;-88
2023/05/09 00:32:44;;;;;;;;;;;17.10;99.90;17.30;99801.00;;;;340015;28;96301;-88
2023/05/09 00:32:56;;;;;;;;;;;17.10;99.90;17.30;99803.00;;;;341072;28;82538;-89
2023/05/09 00:33:08;;;;;;;;;;;17.10;99.90;17.30;99805.00;;;;340174;28;93535;-89
2023/05/09 00:33:20;;;;;;;;;;;17.10;99.90;17.30;99808.00;;;;340796;28;83477;-88
2023/05/09 00:33:31;;;;;;;;;;;17.10;99.90;17.20;99808.00;;;;340163;28;96508;-89
2023/05/09 00:33:43;;;;;;;;;;;17.10;99.90;17.20;99804.00;;;;343685;28;82461;-89
2023/05/09 00:33:55;;;;;;;;;;;17.10;99.90;17.20;99795.00;;;;338537;28;96110;-88
2023/05/09 00:34:07;;;;;;;;;;;17.10;99.90;17.30;99801.00;;;;340904;28;83281;-89
2023/05/09 00:34:19;;;;;;;;;;;17.10;99.90;17.20;99804.00;;;;340023;28;97230;-88
2023/05/09 00:34:30;;;;;;;;;;;17.10;99.90;17.30;99794.00;;;;339341;28;83309;-88
2023/05/09 00:34:42;;;;;;;;;;;17.10;99.90;17.30;99792.00;;;;341130;28;93917;-88
2023/05/09 00:34:54;;;;;;;;;;;17.10;99.90;17.30;99800.00;;;;342132;28;83335;-89
2023/05/09 00:35:07;;;;;;;;;;;17.10;99.90;17.30;99799.00;;;;339979;28;95146;-88
2023/05/09 00:35:19;;;;;;;;;;;17.10;99.90;17.30;99797.00;;;;340938;28;83509;-89
2023/05/09 00:35:31;;;;;;;;;;;17.10;99.90;17.30;99796.00;;;;341557;28;93082;-89
2023/05/09 00:35:43;;;;;;;;;;;17.10;99.90;17.30;99797.00;;;;340810;28;83380;-89
2023/05/09 00:35:55;;;;;;;;;;;17.10;99.90;17.30;99795.00;;;;339994;28;96469;-91
2023/05/09 00:36:06;;;;;;;;;;;17.10;99.90;17.30;99791.00;;;;343194;28;82408;-89
2023/05/09 00:36:18;;;;;;;;;;;17.10;99.90;17.30;99794.00;;;;339505;28;97644;-89
2023/05/09 00:36:31;;;;;;;;;;;17.10;99.90;17.40;99790.00;;;;341704;28;82339;-89
2023/05/09 00:36:42;;;;;;;;;;;17.10;99.90;17.30;99793.00;;;;342348;28;93464;-89
2023/05/09 00:36:54;;;;;;;;;;;17.10;99.90;17.30;99795.00;;;;340234;28;83442;-89
2023/05/09 00:37:06;;;;;;;;;;;17.10;99.90;17.40;99792.00;;;;340990;28;95657;-87
2023/05/09 00:37:18;;;;;;;;;;;17.10;99.90;17.30;99795.00;;;;344303;28;83432;-88
2023/05/09 00:37:30;;;;;;;;;;;17.10;99.90;17.30;99788.00;;;;339489;28;93960;-89
2023/05/09 00:37:41;;;;;;;;;;;17.10;99.90;17.20;99787.00;;;;341686;28;83302;-89
2023/05/09 00:37:53;;;;;;;;;;;17.10;99.90;17.30;99785.00;;;;342208;28;94340;-90
2023/05/09 00:38:05;;;;;;;;;;;17.10;99.90;17.30;99786.00;;;;341457;28;83464;-89
2023/05/09 00:38:17;;;;;;;;;;;17.10;99.90;17.30;99787.00;;;;340537;28;96664;-89
2023/05/09 00:38:29;;;;;;;;;;;17.10;99.90;17.20;99796.00;;;;341376;28;82645;-89
2023/05/09 00:38:40;;;;;;;;;;;17.10;99.90;17.30;99794.00;;;;339290;28;94670;-90
2023/05/09 00:38:52;;;;;;;;;;;17.10;99.90;17.30;99783.00;;;;341597;28;82426;-89
2023/05/09 00:39:04;;;;;;;;;;;17.10;99.90;17.30;99782.00;;;;339246;28;95104;-89
2023/05/09 00:39:16;;;;;;;;;;;17.10;99.90;17.40;99785.00;;;;342738;28;83406;-89
2023/05/09 00:39:28;;;;;;;;;;;17.10;99.90;17.30;99785.00;;;;342079;28;92372;-88
2023/05/09 00:39:39;;;;;;;;;;;17.10;99.90;17.40;99783.00;;;;339618;28;82568;-90
2023/05/09 00:39:51;;;;;;;;;;;17.10;99.90;17.40;99781.00;;;;340157;28;92775;-89
2023/05/09 00:40:05;;;;;;;;;;;17.10;99.90;17.40;99785.00;;;;341220;28;82642;-88
2023/05/09 00:40:16;;;;;;;;;;;17.10;99.90;17.40;99784.00;;;;340086;28;94920;-90
2023/05/09 00:40:28;;;;;;;;;;;17.10;99.90;17.30;99783.00;;;;342321;28;82578;-89
2023/05/09 00:40:40;;;;;;;;;;;17.10;99.90;17.40;99780.00;;;;338563;28;96369;-89
2023/05/09 00:40:52;;;;;;;;;;;17.10;99.90;17.30;99785.00;;;;340915;28;83387;-89
2023/05/09 00:41:03;;;;;;;;;;;17.10;99.90;17.30;99790.00;;;;342856;28;95250;-90
2023/05/09 00:41:15;;;;;;;;;;;17.10;99.90;17.30;99784.00;;;;338568;28;82527;-89
2023/05/09 00:41:27;;;;;;;;;;;17.10;99.90;17.30;99784.00;;;;340240;28;96687;-89
2023/05/09 00:41:39;;;;;;;;;;;17.10;99.90;17.20;99779.00;;;;342556;28;82423;-90
2023/05/09 00:41:51;;;;;;;;;;;17.10;99.90;17.20;99787.00;;;;339015;28;94513;-89
2023/05/09 00:42:03;;;;;;;;;;;17.10;99.90;17.20;99775.00;;;;342470;28;82563;-89
2023/05/09 00:42:15;;;;;;;;;;;17.10;99.90;17.20;99782.00;;;;341505;28;97676;-88
2023/05/09 00:42:27;;;;;;;;;;;17.10;99.90;17.30;99783.00;;;;341278;28;83444;-89
2023/05/09 00:42:39;;;;;;;;;;;17.10;99.90;17.30;99788.00;;;;338970;28;96273;-88
2023/05/09 00:42:51;;;;;;;;;;;17.10;99.90;17.40;99784.00;;;;342360;28;82321;-89
2023/05/09 00:43:03;;;;;;;;;;;17.10;99.90;17.40;99782.00;;;;341360;28;95512;-89
2023/05/09 00:43:15;;;;;;;;;;;17.10;99.90;17.40;99780.00;;;;341905;28;82375;-90
2023/05/09 00:43:27;;;;;;;;;;;17.10;99.90;17.40;99778.00;;;;338492;28;94501;-89
2023/05/09 00:43:39;;;;;;;;;;;17.10;99.90;17.40;99780.00;;;;341894;28;83408;-90
2023/05/09 00:43:51;;;;;;;;;;;17.10;99.90;17.30;99776.00;;;;341306;28;94211;-90
2023/05/09 00:44:03;;;;;;;;;;;17.10;99.90;17.30;99768.00;;;;340781;28;83357;-90
2023/05/09 00:44:14;;;;;;;;;;;17.10;99.90;17.30;99781.00;;;;341749;28;96118;-90
2023/05/09 00:44:26;;;;;;;;;;;17.10;99.90;17.30;99779.00;;;;339479;28;82683;-88
2023/05/09 00:44:38;;;;;;;;;;;17.10;99.90;17.40;99777.00;;;;341286;28;94747;-90
2023/05/09 00:44:50;;;;;;;;;;;17.10;99.90;17.40;99782.00;;;;340970;28;83065;-90
2023/05/09 00:45:01;;;;;;;;;;;17.10;99.90;17.30;99771.00;;;;341434;28;95207;-90
2023/05/09 00:45:13;;;;;;;;;;;17.10;99.90;17.30;99776.00;;;;342010;28;83509;-90
2023/05/09 00:45:25;;;;;;;;;;;17.10;99.90;17.40;99778.00;;;;341303;28;94482;-90
2023/05/09 00:45:37;;;;;;;;;;;17.10;99.90;17.40;99786.00;;;;342016;28;83222;-90
2023/05/09 00:45:49;;;;;;;;;;;17.10;99.90;17.40;99779.00;;;;341154;28;93237;-89
2023/05/09 00:46:01;;;;;;;;;;;17.10;99.90;17.50;99775.00;;;;340811;28;82557;-89
2023/05/09 00:46:13;;;;;;;;;;;17.10;99.90;17.40;99772.00;;;;341024;28;96523;-89
2023/05/09 00:46:25;;;;;;;;;;;17.10;99.90;17.40;99779.00;;;;339251;28;82636;-90
2023/05/09 00:46:37;;;;;;;;;;;17.10;99.90;17.50;99775.00;;;;341223;28;94623;-90
2023/05/09 00:46:49;;;;;;;;;;;17.20;99.90;17.50;99774.00;;;;342064;28;82536;-89
2023/05/09 00:47:01;;;;;;;;;;;17.20;99.90;17.50;99774.00;;;;341068;28;95528;-90
2023/05/09 00:47:12;;;;;;;;;;;17.20;99.90;17.40;99772.00;;;;342007;28;82532;-90
2023/05/09 00:47:24;;;;;;;;;;;17.20;99.90;17.30;99779.00;;;;339931;28;94800;-89
2023/05/09 00:47:36;;;;;;;;;;;17.10;99.90;17.30;99767.00;;;;342191;28;82396;-90
2023/05/09 00:47:48;;;;;;;;;;;17.20;99.90;17.30;99776.00;;;;340231;28;93841;-90
2023/05/09 00:48:00;;;;;;;;;;;17.10;99.90;17.40;99775.00;;;;343276;28;82618;-89
2023/05/09 00:48:13;;;;;;;;;;;17.10;99.90;17.40;99782.00;;;;341313;28;96401;-89
2023/05/09 00:48:25;;;;;;;;;;;17.20;99.90;17.50;99774.00;;;;340854;28;82466;-89
2023/05/09 00:48:37;;;;;;;;;;;17.20;99.90;17.40;99772.00;;;;341210;28;96822;-89
2023/05/09 00:48:49;;;;;;;;;;;17.20;99.90;17.40;99768.00;;;;339799;28;83326;-90
2023/05/09 00:49:00;;;;;;;;;;;17.20;99.90;17.40;99774.00;;;;341696;28;94254;-90
2023/05/09 00:49:12;;;;;;;;;;;17.20;99.90;17.30;99785.00;;;;341119;28;83372;-90
2023/05/09 00:49:24;;;;;;;;;;;17.20;99.90;17.40;99779.00;;;;342921;28;92672;-88
2023/05/09 00:49:36;;;;;;;;;;;17.20;99.90;17.40;99770.00;;;;340023;28;83521;-90
2023/05/09 00:49:48;;;;;;;;;;;17.20;99.90;17.40;99772.00;;;;337752;28;96851;-89
2023/05/09 00:50:00;;;;;;;;;;;17.20;99.90;17.30;99767.00;;;;342428;28;82569;-89
2023/05/09 00:50:12;;;;;;;;;;;17.20;99.90;17.30;99780.00;;;;341703;28;95261;-89
2023/05/09 00:50:24;;;;;;;;;;;17.20;99.90;17.20;99775.00;;;;342929;28;83370;-89
2023/05/09 00:50:36;;;;;;;;;;;17.10;99.90;17.20;99775.00;;;;341883;28;94773;-89
2023/05/09 00:50:51;;;;;;;;;;;17.10;99.90;17.20;99770.00;;;;345069;28;82512;-90
2023/05/09 00:51:03;;;;;;;;;;;17.10;99.90;17.10;99774.00;;;;340279;28;94772;-86
2023/05/09 00:51:15;;;;;;;;;;;17.10;99.90;17.10;99775.00;;;;342304;28;82509;-90
2023/05/09 00:51:27;;;;;;;;;;;17.10;99.90;17.20;99770.00;;;;341846;28;93345;-89
2023/05/09 00:51:39;;;;;;;;;;;17.10;99.90;17.20;99764.00;;;;341236;28;82523;-88
2023/05/09 00:51:51;;;;;;;;;;;17.10;99.90;17.20;99777.00;;;;341650;28;94491;-87
2023/05/09 00:52:03;;;;;;;;;;;17.10;99.90;17.20;99772.00;;;;344144;28;82524;-88
2023/05/09 00:52:16;;;;;;;;;;;17.10;99.90;17.10;99772.00;;;;342930;28;96537;-89
2023/05/09 00:52:28;;;;;;;;;;;17.00;99.90;17.20;99769.00;;;;343918;28;82272;-88
2023/05/09 00:52:40;;;;;;;;;;;17.00;99.90;17.10;99778.00;;;;340205;28;95187;-88
2023/05/09 00:52:52;;;;;;;;;;;17.00;99.90;17.20;99776.00;;;;343784;28;82581;-89
2023/05/09 00:53:04;;;;;;;;;;;17.00;99.90;17.20;99776.00;;;;341640;28;95649;-90
2023/05/09 00:53:16;;;;;;;;;;;17.00;99.90;17.20;99775.00;;;;342363;28;82582;-89
2023/05/09 00:53:27;;;;;;;;;;;17.00;99.90;17.20;99780.00;;;;341820;28;93399;-89
2023/05/09 00:53:39;;;;;;;;;;;17.00;99.90;17.20;99771.00;;;;342752;28;82423;-88
2023/05/09 00:53:51;;;;;;;;;;;17.00;99.90;17.20;99767.00;;;;341512;28;94421;-89
2023/05/09 00:54:03;;;;;;;;;;;17.00;99.90;17.20;99773.00;;;;340647;28;83503;-90
2023/05/09 00:54:16;;;;;;;;;;;17.00;99.90;17.10;99772.00;;;;342870;28;94436;-89
2023/05/09 00:54:28;;;;;;;;;;;17.00;99.90;17.10;99774.00;;;;342125;28;83465;-90
2023/05/09 00:54:40;;;;;;;;;;;17.00;99.90;17.10;99771.00;;;;338762;28;94333;-90
2023/05/09 00:54:52;;;;;;;;;;;17.00;99.90;17.10;99775.00;;;;342197;28;82444;-90
2023/05/09 00:55:07;;;;;;;;;;;17.00;99.90;17.20;99768.00;;;;340856;28;93124;-88
2023/05/09 00:55:18;;;;;;;;;;;17.00;99.90;17.10;99775.00;;;;341088;28;82635;-88
2023/05/09 00:55:30;;;;;;;;;;;17.00;99.90;17.10;99771.00;;;;341644;28;92517;-89
2023/05/09 00:55:42;;;;;;;;;;;17.00;99.90;17.20;99774.00;;;;342417;28;82417;-89
2023/05/09 00:55:54;;;;;;;;;;;17.00;99.90;17.10;99774.00;;;;341858;28;92988;-88
2023/05/09 00:56:08;;;;;;;;;;;17.00;99.90;17.10;99775.00;;;;342621;28;82540;-88
2023/05/09 00:56:20;;;;;;;;;;;17.00;99.90;17.10;99774.00;;;;340325;28;95831;-90
2023/05/09 00:56:32;;;;;;;;;;;17.00;99.90;17.10;99778.00;;;;342547;28;82346;-88
2023/05/09 00:56:44;;;;;;;;;;;17.00;99.90;17.10;99769.00;;;;342995;28;93070;-88
2023/05/09 00:56:56;;;;;;;;;;;17.00;99.90;17.10;99778.00;;;;342217;28;82663;-87
2023/05/09 00:57:08;;;;;;;;;;;16.90;99.90;17.20;99771.00;;;;342915;28;95880;-87
2023/05/09 00:57:22;;;;;;;;;;;17.00;99.90;17.20;99772.00;;;;341368;28;82448;-88
2023/05/09 00:57:35;;;;;;;;;;;16.90;99.90;17.10;99774.00;;;;342652;28;93126;-88
2023/05/09 00:57:46;;;;;;;;;;;17.00;99.90;17.10;99769.00;;;;344111;28;82448;-88
2023/05/09 00:57:58;;;;;;;;;;;17.00;99.90;17.10;99770.00;;;;341564;28;93547;-88
2023/05/09 00:58:10;;;;;;;;;;;17.00;99.90;17.10;99765.00;;;;344218;28;82248;-89
2023/05/09 00:58:22;;;;;;;;;;;16.90;99.90;17.10;99776.00;;;;339061;28;96316;-89
2023/05/09 00:58:34;;;;;;;;;;;16.90;99.90;17.10;99768.00;;;;342833;28;82211;-87
2023/05/09 00:58:46;;;;;;;;;;;16.90;99.90;17.00;99765.00;;;;342884;28;94756;-88
2023/05/09 00:58:58;;;;;;;;;;;16.90;99.90;17.10;99768.00;;;;343478;28;82401;-90
2023/05/09 00:59:10;;;;;;;;;;;16.90;99.90;17.10;99767.00;;;;341113;28;95571;-90
2023/05/09 00:59:22;;;;;;;;;;;16.90;99.90;17.10;99767.00;;;;341285;28;83639;-90
2023/05/09 00:59:34;;;;;;;;;;;16.90;99.90;17.20;99769.00;;;;339823;28;93534;-90
2023/05/09 00:59:47;;;;;;;;;;;16.90;99.90;17.10;99769.00;;;;340628;28;82507;-90
2023/05/09 01:00:03;;;;;;;;;;;16.90;99.90;17.10;99766.00;;;;342556;28;93454;-89
2023/05/09 01:00:16;;;;;;;;;;;16.90;99.90;17.10;99764.00;;;;340727;28;83382;-89